sensor_id;sensor_type;location;lat;lon;timestamp;P1;durP1;ratioP1;P2;durP2;ratioP2
77838;SDS011;67034;43.226;27.932;2023-07-02T00:02:17;5.15;;;3.33;;
77838;SDS011;67034;43.226;27.932;2023-07-02T00:04:44;5.10;;;3.45;;
77838;SDS011;67034;43.226;27.932;2023-07-02T00:07:11;6.43;;;3.20;;
77838;SDS011;67034;43.226;27.932;2023-07-02T00:09:37;4.57;;;3.42;;
77838;SDS011;67034;43.226;27.932;2023-07-02T00:12:03;5.05;;;3.20;;
77838;SDS011;67034;43.226;27.932;2023-07-02T00:14:29;5.55;;;3.38;;
77838;SDS011;67034;43.226;27.932;2023-07-02T00:16:55;4.72;;;3.15;;
77838;SDS011;67034;43.226;27.932;2023-07-02T00:19:21;5.00;;;3.00;;
77838;SDS011;67034;43.226;27.932;2023-07-02T00:21:46;3.45;;;3.05;;
77838;SDS011;67034;43.226;27.932;2023-07-02T00:24:15;3.42;;;3.13;;
77838;SDS011;67034;43.226;27.932;2023-07-02T00:26:41;3.75;;;2.80;;
77838;SDS011;67034;43.226;27.932;2023-07-02T00:29:07;5.32;;;3.45;;
77838;SDS011;67034;43.226;27.932;2023-07-02T00:31:34;4.57;;;3.05;;
77838;SDS011;67034;43.226;27.932;2023-07-02T00:34:00;4.40;;;3.20;;
77838;SDS011;67034;43.226;27.932;2023-07-02T00:36:26;5.38;;;3.50;;
77838;SDS011;67034;43.226;27.932;2023-07-02T00:38:52;12.43;;;3.30;;
77838;SDS011;67034;43.226;27.932;2023-07-02T00:41:19;3.60;;;2.97;;
77838;SDS011;67034;43.226;27.932;2023-07-02T00:43:45;3.78;;;3.20;;
77838;SDS011;67034;43.226;27.932;2023-07-02T00:46:11;3.08;;;2.78;;
77838;SDS011;67034;43.226;27.932;2023-07-02T00:51:08;4.68;;;3.60;;
77838;SDS011;67034;43.226;27.932;2023-07-02T00:53:36;4.45;;;3.25;;
77838;SDS011;67034;43.226;27.932;2023-07-02T00:56:01;4.00;;;3.28;;
77838;SDS011;67034;43.226;27.932;2023-07-02T00:58:29;3.75;;;3.35;;
77838;SDS011;67034;43.226;27.932;2023-07-02T01:00:55;5.55;;;3.55;;
77838;SDS011;67034;43.226;27.932;2023-07-02T01:03:21;5.75;;;3.47;;
77838;SDS011;67034;43.226;27.932;2023-07-02T01:05:47;4.78;;;3.20;;
77838;SDS011;67034;43.226;27.932;2023-07-02T01:08:13;6.88;;;3.70;;
77838;SDS011;67034;43.226;27.932;2023-07-02T01:10:39;4.70;;;3.35;;
77838;SDS011;67034;43.226;27.932;2023-07-02T01:13:07;7.15;;;3.90;;
77838;SDS011;67034;43.226;27.932;2023-07-02T01:15:37;5.18;;;3.60;;
77838;SDS011;67034;43.226;27.932;2023-07-02T01:18:04;3.88;;;3.47;;
77838;SDS011;67034;43.226;27.932;2023-07-02T01:20:32;5.93;;;3.45;;
77838;SDS011;67034;43.226;27.932;2023-07-02T01:22:59;5.07;;;3.35;;
77838;SDS011;67034;43.226;27.932;2023-07-02T01:25:28;3.88;;;3.47;;
77838;SDS011;67034;43.226;27.932;2023-07-02T01:27:54;6.40;;;3.85;;
77838;SDS011;67034;43.226;27.932;2023-07-02T01:30:21;4.05;;;3.30;;
77838;SDS011;67034;43.226;27.932;2023-07-02T01:32:47;7.80;;;4.18;;
77838;SDS011;67034;43.226;27.932;2023-07-02T01:35:13;4.15;;;3.55;;
77838;SDS011;67034;43.226;27.932;2023-07-02T01:37:40;5.63;;;3.63;;
77838;SDS011;67034;43.226;27.932;2023-07-02T01:40:06;4.80;;;4.00;;
77838;SDS011;67034;43.226;27.932;2023-07-02T01:42:35;6.30;;;4.30;;
77838;SDS011;67034;43.226;27.932;2023-07-02T01:45:01;7.22;;;3.88;;
77838;SDS011;67034;43.226;27.932;2023-07-02T01:47:27;5.05;;;3.65;;
77838;SDS011;67034;43.226;27.932;2023-07-02T01:49:53;4.95;;;4.10;;
77838;SDS011;67034;43.226;27.932;2023-07-02T01:52:19;6.43;;;4.03;;
77838;SDS011;67034;43.226;27.932;2023-07-02T01:54:46;7.63;;;4.13;;
77838;SDS011;67034;43.226;27.932;2023-07-02T01:57:12;7.07;;;4.40;;
77838;SDS011;67034;43.226;27.932;2023-07-02T01:59:38;5.82;;;4.45;;
77838;SDS011;67034;43.226;27.932;2023-07-02T02:02:03;6.22;;;4.38;;
77838;SDS011;67034;43.226;27.932;2023-07-02T02:04:29;5.28;;;4.15;;
77838;SDS011;67034;43.226;27.932;2023-07-02T02:06:55;7.32;;;4.28;;
77838;SDS011;67034;43.226;27.932;2023-07-02T02:09:21;6.10;;;3.72;;
77838;SDS011;67034;43.226;27.932;2023-07-02T02:11:49;6.47;;;4.20;;
77838;SDS011;67034;43.226;27.932;2023-07-02T02:14:16;4.93;;;4.35;;
77838;SDS011;67034;43.226;27.932;2023-07-02T02:16:42;5.95;;;4.13;;
77838;SDS011;67034;43.226;27.932;2023-07-02T02:19:10;6.85;;;4.60;;
77838;SDS011;67034;43.226;27.932;2023-07-02T02:21:36;5.70;;;4.35;;
77838;SDS011;67034;43.226;27.932;2023-07-02T02:24:02;6.43;;;4.30;;
77838;SDS011;67034;43.226;27.932;2023-07-02T02:26:27;5.63;;;4.30;;
77838;SDS011;67034;43.226;27.932;2023-07-02T02:28:55;4.47;;;4.00;;
77838;SDS011;67034;43.226;27.932;2023-07-02T02:31:20;6.93;;;4.15;;
77838;SDS011;67034;43.226;27.932;2023-07-02T02:33:46;5.38;;;4.60;;
77838;SDS011;67034;43.226;27.932;2023-07-02T02:36:12;6.28;;;4.00;;
77838;SDS011;67034;43.226;27.932;2023-07-02T02:38:37;6.35;;;4.35;;
77838;SDS011;67034;43.226;27.932;2023-07-02T02:41:03;5.07;;;4.53;;
77838;SDS011;67034;43.226;27.932;2023-07-02T02:43:29;7.30;;;4.60;;
77838;SDS011;67034;43.226;27.932;2023-07-02T02:45:57;6.03;;;4.35;;
77838;SDS011;67034;43.226;27.932;2023-07-02T02:48:22;5.28;;;4.32;;
77838;SDS011;67034;43.226;27.932;2023-07-02T02:50:48;5.50;;;4.20;;
77838;SDS011;67034;43.226;27.932;2023-07-02T02:53:14;7.55;;;4.90;;
77838;SDS011;67034;43.226;27.932;2023-07-02T02:55:40;5.13;;;4.55;;
77838;SDS011;67034;43.226;27.932;2023-07-02T02:58:05;8.13;;;4.97;;
77838;SDS011;67034;43.226;27.932;2023-07-02T03:00:31;7.78;;;4.80;;
77838;SDS011;67034;43.226;27.932;2023-07-02T03:02:58;5.43;;;4.85;;
77838;SDS011;67034;43.226;27.932;2023-07-02T03:05:24;6.05;;;4.70;;
77838;SDS011;67034;43.226;27.932;2023-07-02T03:07:51;6.55;;;4.22;;
77838;SDS011;67034;43.226;27.932;2023-07-02T03:10:17;6.88;;;4.53;;
77838;SDS011;67034;43.226;27.932;2023-07-02T03:12:42;6.43;;;4.50;;
77838;SDS011;67034;43.226;27.932;2023-07-02T03:15:08;5.43;;;4.85;;
77838;SDS011;67034;43.226;27.932;2023-07-02T03:17:35;6.45;;;4.57;;
77838;SDS011;67034;43.226;27.932;2023-07-02T03:20:02;5.57;;;4.50;;
77838;SDS011;67034;43.226;27.932;2023-07-02T03:22:29;7.15;;;4.43;;
77838;SDS011;67034;43.226;27.932;2023-07-02T03:24:55;4.93;;;3.83;;
77838;SDS011;67034;43.226;27.932;2023-07-02T03:27:21;5.97;;;4.28;;
77838;SDS011;67034;43.226;27.932;2023-07-02T03:29:46;4.95;;;4.45;;
77838;SDS011;67034;43.226;27.932;2023-07-02T03:32:12;7.22;;;4.40;;
77838;SDS011;67034;43.226;27.932;2023-07-02T03:34:38;4.78;;;4.28;;
77838;SDS011;67034;43.226;27.932;2023-07-02T03:37:05;6.43;;;4.82;;
77838;SDS011;67034;43.226;27.932;2023-07-02T03:39:32;5.03;;;4.53;;
77838;SDS011;67034;43.226;27.932;2023-07-02T03:41:58;5.70;;;4.50;;
77838;SDS011;67034;43.226;27.932;2023-07-02T03:44:24;11.48;;;4.85;;
77838;SDS011;67034;43.226;27.932;2023-07-02T03:46:49;5.22;;;4.47;;
77838;SDS011;67034;43.226;27.932;2023-07-02T03:49:15;6.97;;;5.43;;
77838;SDS011;67034;43.226;27.932;2023-07-02T03:51:41;7.32;;;4.68;;
77838;SDS011;67034;43.226;27.932;2023-07-02T03:54:08;7.28;;;4.57;;
77838;SDS011;67034;43.226;27.932;2023-07-02T03:56:34;7.07;;;4.38;;
77838;SDS011;67034;43.226;27.932;2023-07-02T03:58:59;5.50;;;4.63;;
77838;SDS011;67034;43.226;27.932;2023-07-02T04:01:25;7.70;;;4.03;;
77838;SDS011;67034;43.226;27.932;2023-07-02T04:03:51;7.88;;;4.28;;
77838;SDS011;67034;43.226;27.932;2023-07-02T04:06:18;5.65;;;4.43;;
77838;SDS011;67034;43.226;27.932;2023-07-02T04:08:44;5.63;;;4.57;;
77838;SDS011;67034;43.226;27.932;2023-07-02T04:11:11;6.60;;;4.35;;
77838;SDS011;67034;43.226;27.932;2023-07-02T04:13:37;5.97;;;4.60;;
77838;SDS011;67034;43.226;27.932;2023-07-02T04:16:04;5.75;;;4.55;;
77838;SDS011;67034;43.226;27.932;2023-07-02T04:18:30;6.22;;;4.65;;
77838;SDS011;67034;43.226;27.932;2023-07-02T04:20:56;4.70;;;4.20;;
77838;SDS011;67034;43.226;27.932;2023-07-02T04:23:22;7.90;;;4.72;;
77838;SDS011;67034;43.226;27.932;2023-07-02T04:25:48;7.85;;;5.13;;
77838;SDS011;67034;43.226;27.932;2023-07-02T04:28:15;6.22;;;4.25;;
77838;SDS011;67034;43.226;27.932;2023-07-02T04:30:40;5.63;;;4.05;;
77838;SDS011;67034;43.226;27.932;2023-07-02T04:33:07;8.70;;;4.32;;
77838;SDS011;67034;43.226;27.932;2023-07-02T04:35:33;5.70;;;4.47;;
77838;SDS011;67034;43.226;27.932;2023-07-02T04:37:59;5.57;;;3.97;;
77838;SDS011;67034;43.226;27.932;2023-07-02T04:40:25;5.50;;;3.85;;
77838;SDS011;67034;43.226;27.932;2023-07-02T04:42:51;4.75;;;4.03;;
77838;SDS011;67034;43.226;27.932;2023-07-02T04:45:24;5.35;;;3.97;;
77838;SDS011;67034;43.226;27.932;2023-07-02T04:47:50;4.50;;;3.17;;
77838;SDS011;67034;43.226;27.932;2023-07-02T04:50:16;6.47;;;3.88;;
77838;SDS011;67034;43.226;27.932;2023-07-02T04:52:42;4.55;;;3.95;;
77838;SDS011;67034;43.226;27.932;2023-07-02T04:55:08;7.28;;;3.50;;
77838;SDS011;67034;43.226;27.932;2023-07-02T04:57:34;5.03;;;4.10;;
77838;SDS011;67034;43.226;27.932;2023-07-02T05:00:00;5.72;;;3.58;;
77838;SDS011;67034;43.226;27.932;2023-07-02T05:02:27;6.60;;;4.32;;
77838;SDS011;67034;43.226;27.932;2023-07-02T05:04:53;4.90;;;3.90;;
77838;SDS011;67034;43.226;27.932;2023-07-02T05:07:18;4.70;;;3.90;;
77838;SDS011;67034;43.226;27.932;2023-07-02T05:09:44;6.13;;;3.80;;
77838;SDS011;67034;43.226;27.932;2023-07-02T05:12:10;4.22;;;3.70;;
77838;SDS011;67034;43.226;27.932;2023-07-02T05:14:35;6.70;;;3.72;;
77838;SDS011;67034;43.226;27.932;2023-07-02T05:17:01;6.38;;;3.83;;
77838;SDS011;67034;43.226;27.932;2023-07-02T05:19:29;4.70;;;3.55;;
77838;SDS011;67034;43.226;27.932;2023-07-02T05:21:55;6.13;;;4.00;;
77838;SDS011;67034;43.226;27.932;2023-07-02T05:24:21;5.60;;;4.22;;
77838;SDS011;67034;43.226;27.932;2023-07-02T05:26:46;6.53;;;4.57;;
77838;SDS011;67034;43.226;27.932;2023-07-02T05:29:12;5.85;;;3.95;;
77838;SDS011;67034;43.226;27.932;2023-07-02T05:31:39;11.60;;;4.45;;
77838;SDS011;67034;43.226;27.932;2023-07-02T05:34:05;6.45;;;4.82;;
77838;SDS011;67034;43.226;27.932;2023-07-02T05:36:32;6.03;;;3.67;;
77838;SDS011;67034;43.226;27.932;2023-07-02T05:38:59;5.68;;;4.05;;
77838;SDS011;67034;43.226;27.932;2023-07-02T05:41:25;7.95;;;4.40;;
77838;SDS011;67034;43.226;27.932;2023-07-02T05:43:55;9.25;;;3.92;;
77838;SDS011;67034;43.226;27.932;2023-07-02T05:46:21;4.68;;;3.70;;
77838;SDS011;67034;43.226;27.932;2023-07-02T05:48:46;10.68;;;4.95;;
77838;SDS011;67034;43.226;27.932;2023-07-02T05:51:12;8.13;;;4.93;;
77838;SDS011;67034;43.226;27.932;2023-07-02T05:53:39;7.80;;;4.40;;
77838;SDS011;67034;43.226;27.932;2023-07-02T05:56:05;6.82;;;4.45;;
77838;SDS011;67034;43.226;27.932;2023-07-02T05:58:30;6.88;;;4.43;;
77838;SDS011;67034;43.226;27.932;2023-07-02T06:00:56;7.80;;;4.68;;
77838;SDS011;67034;43.226;27.932;2023-07-02T06:03:22;8.60;;;5.05;;
77838;SDS011;67034;43.226;27.932;2023-07-02T06:05:48;7.60;;;4.80;;
77838;SDS011;67034;43.226;27.932;2023-07-02T06:08:14;5.57;;;4.10;;
77838;SDS011;67034;43.226;27.932;2023-07-02T06:10:41;6.20;;;4.25;;
77838;SDS011;67034;43.226;27.932;2023-07-02T06:13:08;5.05;;;4.40;;
77838;SDS011;67034;43.226;27.932;2023-07-02T06:15:34;4.70;;;4.18;;
77838;SDS011;67034;43.226;27.932;2023-07-02T06:18:00;5.95;;;4.85;;
77838;SDS011;67034;43.226;27.932;2023-07-02T06:20:26;6.43;;;4.32;;
77838;SDS011;67034;43.226;27.932;2023-07-02T06:22:52;5.38;;;4.28;;
77838;SDS011;67034;43.226;27.932;2023-07-02T06:25:17;6.95;;;4.70;;
77838;SDS011;67034;43.226;27.932;2023-07-02T06:27:44;8.88;;;4.25;;
77838;SDS011;67034;43.226;27.932;2023-07-02T06:30:10;5.90;;;4.85;;
77838;SDS011;67034;43.226;27.932;2023-07-02T06:32:37;4.93;;;3.88;;
77838;SDS011;67034;43.226;27.932;2023-07-02T06:35:03;6.43;;;4.53;;
77838;SDS011;67034;43.226;27.932;2023-07-02T06:37:31;5.45;;;4.35;;
77838;SDS011;67034;43.226;27.932;2023-07-02T06:39:56;5.40;;;4.88;;
77838;SDS011;67034;43.226;27.932;2023-07-02T06:42:22;9.75;;;4.93;;
77838;SDS011;67034;43.226;27.932;2023-07-02T06:44:50;7.38;;;4.32;;
77838;SDS011;67034;43.226;27.932;2023-07-02T06:47:16;6.10;;;4.95;;
77838;SDS011;67034;43.226;27.932;2023-07-02T06:49:42;9.15;;;5.18;;
77838;SDS011;67034;43.226;27.932;2023-07-02T06:52:08;8.30;;;5.47;;
77838;SDS011;67034;43.226;27.932;2023-07-02T06:54:34;7.97;;;4.72;;
77838;SDS011;67034;43.226;27.932;2023-07-02T06:57:00;7.88;;;4.60;;
77838;SDS011;67034;43.226;27.932;2023-07-02T06:59:25;9.13;;;5.28;;
77838;SDS011;67034;43.226;27.932;2023-07-02T07:01:53;7.80;;;4.90;;
77838;SDS011;67034;43.226;27.932;2023-07-02T07:04:18;10.98;;;4.88;;
77838;SDS011;67034;43.226;27.932;2023-07-02T07:06:44;7.30;;;4.35;;
77838;SDS011;67034;43.226;27.932;2023-07-02T07:09:10;8.45;;;6.03;;
77838;SDS011;67034;43.226;27.932;2023-07-02T07:11:36;6.47;;;5.20;;
77838;SDS011;67034;43.226;27.932;2023-07-02T07:14:01;11.23;;;4.85;;
77838;SDS011;67034;43.226;27.932;2023-07-02T07:16:27;9.65;;;6.20;;
77838;SDS011;67034;43.226;27.932;2023-07-02T07:18:54;9.40;;;4.70;;
77838;SDS011;67034;43.226;27.932;2023-07-02T07:21:20;6.82;;;4.78;;
77838;SDS011;67034;43.226;27.932;2023-07-02T07:23:45;9.52;;;5.20;;
77838;SDS011;67034;43.226;27.932;2023-07-02T07:26:11;5.03;;;4.47;;
77838;SDS011;67034;43.226;27.932;2023-07-02T07:28:37;7.57;;;4.22;;
77838;SDS011;67034;43.226;27.932;2023-07-02T07:31:03;7.18;;;5.28;;
77838;SDS011;67034;43.226;27.932;2023-07-02T07:33:28;7.13;;;4.55;;
77838;SDS011;67034;43.226;27.932;2023-07-02T07:35:55;8.18;;;5.15;;
77838;SDS011;67034;43.226;27.932;2023-07-02T07:38:21;5.22;;;4.60;;
77838;SDS011;67034;43.226;27.932;2023-07-02T07:40:47;5.75;;;4.80;;
77838;SDS011;67034;43.226;27.932;2023-07-02T07:43:13;7.13;;;4.95;;
77838;SDS011;67034;43.226;27.932;2023-07-02T07:45:38;7.15;;;4.97;;
77838;SDS011;67034;43.226;27.932;2023-07-02T07:48:05;7.38;;;4.82;;
77838;SDS011;67034;43.226;27.932;2023-07-02T07:50:31;7.72;;;5.50;;
77838;SDS011;67034;43.226;27.932;2023-07-02T07:52:58;6.25;;;5.65;;
77838;SDS011;67034;43.226;27.932;2023-07-02T07:55:24;7.85;;;5.38;;
77838;SDS011;67034;43.226;27.932;2023-07-02T07:57:50;6.63;;;5.35;;
77838;SDS011;67034;43.226;27.932;2023-07-02T08:00:16;10.90;;;6.07;;
77838;SDS011;67034;43.226;27.932;2023-07-02T08:02:42;8.73;;;5.93;;
77838;SDS011;67034;43.226;27.932;2023-07-02T08:05:08;13.32;;;5.68;;
77838;SDS011;67034;43.226;27.932;2023-07-02T08:07:34;7.47;;;5.47;;
77838;SDS011;67034;43.226;27.932;2023-07-02T08:10:01;7.07;;;5.20;;
77838;SDS011;67034;43.226;27.932;2023-07-02T08:12:27;5.88;;;4.80;;
77838;SDS011;67034;43.226;27.932;2023-07-02T08:14:54;7.97;;;5.28;;
77838;SDS011;67034;43.226;27.932;2023-07-02T08:17:20;8.05;;;5.20;;
77838;SDS011;67034;43.226;27.932;2023-07-02T08:19:46;6.20;;;5.15;;
77838;SDS011;67034;43.226;27.932;2023-07-02T08:22:12;11.13;;;5.65;;
77838;SDS011;67034;43.226;27.932;2023-07-02T08:24:37;6.00;;;4.68;;
77838;SDS011;67034;43.226;27.932;2023-07-02T08:27:05;7.47;;;5.07;;
77838;SDS011;67034;43.226;27.932;2023-07-02T08:29:31;11.57;;;5.63;;
77838;SDS011;67034;43.226;27.932;2023-07-02T08:31:57;10.48;;;5.78;;
77838;SDS011;67034;43.226;27.932;2023-07-02T08:34:23;6.30;;;4.85;;
77838;SDS011;67034;43.226;27.932;2023-07-02T08:36:49;8.95;;;5.45;;
77838;SDS011;67034;43.226;27.932;2023-07-02T08:39:15;11.18;;;6.38;;
77838;SDS011;67034;43.226;27.932;2023-07-02T08:41:44;6.82;;;6.07;;
77838;SDS011;67034;43.226;27.932;2023-07-02T08:44:12;12.73;;;5.45;;
77838;SDS011;67034;43.226;27.932;2023-07-02T08:46:38;8.10;;;6.40;;
77838;SDS011;67034;43.226;27.932;2023-07-02T08:49:05;8.82;;;6.30;;
77838;SDS011;67034;43.226;27.932;2023-07-02T08:51:31;7.72;;;5.63;;
77838;SDS011;67034;43.226;27.932;2023-07-02T08:53:57;8.32;;;6.40;;
77838;SDS011;67034;43.226;27.932;2023-07-02T08:56:23;15.38;;;6.57;;
77838;SDS011;67034;43.226;27.932;2023-07-02T08:58:49;8.07;;;5.95;;
77838;SDS011;67034;43.226;27.932;2023-07-02T09:01:16;11.65;;;6.05;;
77838;SDS011;67034;43.226;27.932;2023-07-02T09:03:42;6.93;;;6.28;;
77838;SDS011;67034;43.226;27.932;2023-07-02T09:06:08;7.38;;;5.88;;
77838;SDS011;67034;43.226;27.932;2023-07-02T09:08:35;8.60;;;6.38;;
77838;SDS011;67034;43.226;27.932;2023-07-02T09:11:07;16.05;;;7.53;;
77838;SDS011;67034;43.226;27.932;2023-07-02T09:13:43;9.05;;;5.18;;
77838;SDS011;67034;43.226;27.932;2023-07-02T09:16:21;7.35;;;5.45;;
77838;SDS011;67034;43.226;27.932;2023-07-02T09:18:55;10.48;;;5.38;;
77838;SDS011;67034;43.226;27.932;2023-07-02T09:21:21;9.13;;;6.05;;
77838;SDS011;67034;43.226;27.932;2023-07-02T09:23:47;9.73;;;5.82;;
77838;SDS011;67034;43.226;27.932;2023-07-02T09:26:18;6.82;;;5.55;;
77838;SDS011;67034;43.226;27.932;2023-07-02T09:28:44;8.50;;;6.30;;
77838;SDS011;67034;43.226;27.932;2023-07-02T09:31:10;6.80;;;6.10;;
77838;SDS011;67034;43.226;27.932;2023-07-02T09:33:37;6.57;;;4.85;;
77838;SDS011;67034;43.226;27.932;2023-07-02T09:36:03;9.57;;;6.15;;
77838;SDS011;67034;43.226;27.932;2023-07-02T09:38:29;9.60;;;5.65;;
77838;SDS011;67034;43.226;27.932;2023-07-02T09:40:55;13.05;;;5.15;;
77838;SDS011;67034;43.226;27.932;2023-07-02T09:43:21;6.80;;;4.90;;
77838;SDS011;67034;43.226;27.932;2023-07-02T09:45:47;6.90;;;4.43;;
77838;SDS011;67034;43.226;27.932;2023-07-02T09:48:15;6.32;;;5.20;;
77838;SDS011;67034;43.226;27.932;2023-07-02T09:50:44;6.47;;;4.78;;
77838;SDS011;67034;43.226;27.932;2023-07-02T09:53:13;8.25;;;4.90;;
77838;SDS011;67034;43.226;27.932;2023-07-02T09:55:39;9.30;;;5.50;;
77838;SDS011;67034;43.226;27.932;2023-07-02T09:58:07;6.93;;;5.30;;
77838;SDS011;67034;43.226;27.932;2023-07-02T10:00:33;10.80;;;6.00;;
77838;SDS011;67034;43.226;27.932;2023-07-02T10:02:59;10.43;;;5.10;;
77838;SDS011;67034;43.226;27.932;2023-07-02T10:05:26;6.03;;;5.25;;
77838;SDS011;67034;43.226;27.932;2023-07-02T10:07:54;6.50;;;5.53;;
77838;SDS011;67034;43.226;27.932;2023-07-02T10:10:27;7.05;;;5.70;;
77838;SDS011;67034;43.226;27.932;2023-07-02T10:12:55;8.73;;;4.97;;
77838;SDS011;67034;43.226;27.932;2023-07-02T10:15:24;7.78;;;5.30;;
77838;SDS011;67034;43.226;27.932;2023-07-02T10:17:54;7.07;;;4.72;;
77838;SDS011;67034;43.226;27.932;2023-07-02T10:20:30;6.80;;;4.35;;
77838;SDS011;67034;43.226;27.932;2023-07-02T10:22:59;6.22;;;4.82;;
77838;SDS011;67034;43.226;27.932;2023-07-02T10:25:27;7.38;;;4.88;;
77838;SDS011;67034;43.226;27.932;2023-07-02T10:27:54;7.97;;;4.25;;
77838;SDS011;67034;43.226;27.932;2023-07-02T10:30:29;6.55;;;5.13;;
77838;SDS011;67034;43.226;27.932;2023-07-02T10:33:06;6.80;;;5.18;;
77838;SDS011;67034;43.226;27.932;2023-07-02T10:35:33;9.30;;;4.95;;
77838;SDS011;67034;43.226;27.932;2023-07-02T10:38:01;5.85;;;4.60;;
77838;SDS011;67034;43.226;27.932;2023-07-02T10:40:27;6.90;;;4.93;;
77838;SDS011;67034;43.226;27.932;2023-07-02T10:42:53;7.75;;;4.60;;
77838;SDS011;67034;43.226;27.932;2023-07-02T10:45:18;8.35;;;5.32;;
77838;SDS011;67034;43.226;27.932;2023-07-02T10:47:45;8.63;;;5.15;;
77838;SDS011;67034;43.226;27.932;2023-07-02T10:50:15;7.20;;;4.72;;
77838;SDS011;67034;43.226;27.932;2023-07-02T10:52:42;6.50;;;4.65;;
77838;SDS011;67034;43.226;27.932;2023-07-02T10:55:09;6.32;;;4.70;;
77838;SDS011;67034;43.226;27.932;2023-07-02T10:57:35;6.88;;;5.30;;
77838;SDS011;67034;43.226;27.932;2023-07-02T11:00:04;5.70;;;4.70;;
77838;SDS011;67034;43.226;27.932;2023-07-02T11:02:33;8.57;;;5.00;;
77838;SDS011;67034;43.226;27.932;2023-07-02T11:04:59;5.70;;;4.80;;
77838;SDS011;67034;43.226;27.932;2023-07-02T11:07:25;6.28;;;4.10;;
77838;SDS011;67034;43.226;27.932;2023-07-02T11:09:51;5.78;;;4.20;;
77838;SDS011;67034;43.226;27.932;2023-07-02T11:12:22;7.43;;;5.13;;
77838;SDS011;67034;43.226;27.932;2023-07-02T11:14:52;7.88;;;5.10;;
77838;SDS011;67034;43.226;27.932;2023-07-02T11:17:24;7.95;;;4.72;;
77838;SDS011;67034;43.226;27.932;2023-07-02T11:19:51;7.13;;;5.43;;
77838;SDS011;67034;43.226;27.932;2023-07-02T11:22:16;7.47;;;5.50;;
77838;SDS011;67034;43.226;27.932;2023-07-02T11:24:42;7.75;;;5.53;;
77838;SDS011;67034;43.226;27.932;2023-07-02T11:27:08;11.27;;;6.28;;
77838;SDS011;67034;43.226;27.932;2023-07-02T11:29:35;9.30;;;5.22;;
77838;SDS011;67034;43.226;27.932;2023-07-02T11:32:05;7.28;;;4.97;;
77838;SDS011;67034;43.226;27.932;2023-07-02T11:34:31;8.50;;;5.45;;
77838;SDS011;67034;43.226;27.932;2023-07-02T11:36:57;6.03;;;5.15;;
77838;SDS011;67034;43.226;27.932;2023-07-02T11:39:23;8.23;;;5.30;;
77838;SDS011;67034;43.226;27.932;2023-07-02T11:41:49;11.27;;;5.18;;
77838;SDS011;67034;43.226;27.932;2023-07-02T11:44:15;10.68;;;5.38;;
77838;SDS011;67034;43.226;27.932;2023-07-02T11:46:43;7.45;;;5.05;;
77838;SDS011;67034;43.226;27.932;2023-07-02T11:49:08;7.90;;;5.60;;
77838;SDS011;67034;43.226;27.932;2023-07-02T11:51:35;7.72;;;6.10;;
77838;SDS011;67034;43.226;27.932;2023-07-02T11:54:01;8.18;;;5.70;;
77838;SDS011;67034;43.226;27.932;2023-07-02T11:56:26;6.85;;;4.85;;
77838;SDS011;67034;43.226;27.932;2023-07-02T11:58:52;8.70;;;5.22;;
77838;SDS011;67034;43.226;27.932;2023-07-02T12:01:18;6.72;;;5.50;;
77838;SDS011;67034;43.226;27.932;2023-07-02T12:03:45;5.95;;;5.25;;
77838;SDS011;67034;43.226;27.932;2023-07-02T12:06:10;6.60;;;5.22;;
77838;SDS011;67034;43.226;27.932;2023-07-02T12:08:36;9.00;;;5.35;;
77838;SDS011;67034;43.226;27.932;2023-07-02T12:11:02;7.60;;;5.38;;
77838;SDS011;67034;43.226;27.932;2023-07-02T12:13:28;8.18;;;5.57;;
77838;SDS011;67034;43.226;27.932;2023-07-02T12:15:53;7.30;;;5.07;;
77838;SDS011;67034;43.226;27.932;2023-07-02T12:18:19;6.38;;;5.22;;
77838;SDS011;67034;43.226;27.932;2023-07-02T12:20:46;6.93;;;5.13;;
77838;SDS011;67034;43.226;27.932;2023-07-02T12:23:12;5.53;;;4.88;;
77838;SDS011;67034;43.226;27.932;2023-07-02T12:25:38;6.60;;;4.47;;
77838;SDS011;67034;43.226;27.932;2023-07-02T12:28:04;7.63;;;4.57;;
77838;SDS011;67034;43.226;27.932;2023-07-02T12:30:30;5.53;;;4.45;;
77838;SDS011;67034;43.226;27.932;2023-07-02T12:32:56;5.63;;;4.43;;
77838;SDS011;67034;43.226;27.932;2023-07-02T12:35:21;8.68;;;4.90;;
77838;SDS011;67034;43.226;27.932;2023-07-02T12:37:49;6.05;;;4.57;;
77838;SDS011;67034;43.226;27.932;2023-07-02T12:40:16;4.90;;;4.40;;
77838;SDS011;67034;43.226;27.932;2023-07-02T12:42:42;7.03;;;4.93;;
77838;SDS011;67034;43.226;27.932;2023-07-02T12:45:09;6.78;;;4.82;;
77838;SDS011;67034;43.226;27.932;2023-07-02T12:47:36;5.20;;;4.70;;
77838;SDS011;67034;43.226;27.932;2023-07-02T12:50:02;7.47;;;5.53;;
77838;SDS011;67034;43.226;27.932;2023-07-02T12:52:29;9.40;;;4.82;;
77838;SDS011;67034;43.226;27.932;2023-07-02T12:54:56;6.88;;;4.57;;
77838;SDS011;67034;43.226;27.932;2023-07-02T12:57:22;10.65;;;5.00;;
77838;SDS011;67034;43.226;27.932;2023-07-02T12:59:48;5.43;;;4.93;;
77838;SDS011;67034;43.226;27.932;2023-07-02T13:02:13;8.65;;;4.57;;
77838;SDS011;67034;43.226;27.932;2023-07-02T13:04:39;10.10;;;5.63;;
77838;SDS011;67034;43.226;27.932;2023-07-02T13:07:05;9.45;;;5.45;;
77838;SDS011;67034;43.226;27.932;2023-07-02T13:09:31;8.43;;;5.20;;
77838;SDS011;67034;43.226;27.932;2023-07-02T13:11:58;7.95;;;4.80;;
77838;SDS011;67034;43.226;27.932;2023-07-02T13:14:24;7.65;;;4.10;;
77838;SDS011;67034;43.226;27.932;2023-07-02T13:16:49;6.53;;;4.47;;
77838;SDS011;67034;43.226;27.932;2023-07-02T13:19:15;5.13;;;4.43;;
77838;SDS011;67034;43.226;27.932;2023-07-02T13:21:41;5.50;;;4.90;;
77838;SDS011;67034;43.226;27.932;2023-07-02T13:24:07;6.80;;;4.80;;
77838;SDS011;67034;43.226;27.932;2023-07-02T13:26:32;7.65;;;4.57;;
77838;SDS011;67034;43.226;27.932;2023-07-02T13:29:00;8.15;;;4.43;;
77838;SDS011;67034;43.226;27.932;2023-07-02T13:31:26;8.93;;;5.63;;
77838;SDS011;67034;43.226;27.932;2023-07-02T13:33:51;5.53;;;4.60;;
77838;SDS011;67034;43.226;27.932;2023-07-02T13:36:17;5.07;;;4.32;;
77838;SDS011;67034;43.226;27.932;2023-07-02T13:38:43;5.05;;;4.30;;
77838;SDS011;67034;43.226;27.932;2023-07-02T13:41:09;6.20;;;4.63;;
77838;SDS011;67034;43.226;27.932;2023-07-02T13:43:34;9.93;;;5.10;;
77838;SDS011;67034;43.226;27.932;2023-07-02T13:46:02;7.22;;;5.60;;
77838;SDS011;67034;43.226;27.932;2023-07-02T13:48:28;12.05;;;4.57;;
77838;SDS011;67034;43.226;27.932;2023-07-02T13:50:54;5.38;;;4.38;;
77838;SDS011;67034;43.226;27.932;2023-07-02T13:53:19;11.20;;;5.10;;
77838;SDS011;67034;43.226;27.932;2023-07-02T13:55:45;6.82;;;4.70;;
77838;SDS011;67034;43.226;27.932;2023-07-02T13:58:11;8.75;;;5.10;;
77838;SDS011;67034;43.226;27.932;2023-07-02T14:00:39;5.93;;;5.30;;
77838;SDS011;67034;43.226;27.932;2023-07-02T14:03:05;6.88;;;5.43;;
77838;SDS011;67034;43.226;27.932;2023-07-02T14:05:31;6.25;;;5.00;;
77838;SDS011;67034;43.226;27.932;2023-07-02T14:07:57;6.07;;;5.32;;
77838;SDS011;67034;43.226;27.932;2023-07-02T14:10:23;9.88;;;6.43;;
77838;SDS011;67034;43.226;27.932;2023-07-02T14:12:49;8.27;;;6.43;;
77838;SDS011;67034;43.226;27.932;2023-07-02T14:15:15;6.97;;;5.20;;
77838;SDS011;67034;43.226;27.932;2023-07-02T14:17:42;7.93;;;5.57;;
77838;SDS011;67034;43.226;27.932;2023-07-02T14:20:08;10.63;;;4.93;;
77838;SDS011;67034;43.226;27.932;2023-07-02T14:22:35;8.60;;;4.97;;
77838;SDS011;67034;43.226;27.932;2023-07-02T14:25:00;7.68;;;5.10;;
77838;SDS011;67034;43.226;27.932;2023-07-02T14:27:26;6.82;;;5.25;;
77838;SDS011;67034;43.226;27.932;2023-07-02T14:29:52;11.00;;;5.13;;
77838;SDS011;67034;43.226;27.932;2023-07-02T14:32:18;7.35;;;5.05;;